sensor_id;sensor_type;location;lat;lon;timestamp;temperature;humidity
8475;DHT22;4274;52.012;8.448;2023-03-08T00:00:32;0.90;99.90
8475;DHT22;4274;52.012;8.448;2023-03-08T00:02:58;0.80;99.90
8475;DHT22;4274;52.012;8.448;2023-03-08T00:05:23;0.90;99.90
8475;DHT22;4274;52.012;8.448;2023-03-08T00:07:52;0.90;99.90
8475;DHT22;4274;52.012;8.448;2023-03-08T00:10:17;0.80;99.90
8475;DHT22;4274;52.012;8.448;2023-03-08T00:12:43;0.80;99.90
8475;DHT22;4274;52.012;8.448;2023-03-08T00:15:09;0.80;99.90
8475;DHT22;4274;52.012;8.448;2023-03-08T00:17:36;0.80;99.90
8475;DHT22;4274;52.012;8.448;2023-03-08T00:20:03;0.80;99.90
8475;DHT22;4274;52.012;8.448;2023-03-08T00:22:34;0.80;99.90
8475;DHT22;4274;52.012;8.448;2023-03-08T00:25:00;0.90;99.90
8475;DHT22;4274;52.012;8.448;2023-03-08T00:27:26;0.90;99.90
8475;DHT22;4274;52.012;8.448;2023-03-08T00:29:51;0.90;99.90
8475;DHT22;4274;52.012;8.448;2023-03-08T00:32:17;0.80;99.90
8475;DHT22;4274;52.012;8.448;2023-03-08T00:34:42;0.80;99.90
8475;DHT22;4274;52.012;8.448;2023-03-08T00:37:11;0.80;99.90
8475;DHT22;4274;52.012;8.448;2023-03-08T00:39:37;0.80;99.90
8475;DHT22;4274;52.012;8.448;2023-03-08T00:42:03;0.80;99.90
8475;DHT22;4274;52.012;8.448;2023-03-08T00:44:29;0.80;99.90
8475;DHT22;4274;52.012;8.448;2023-03-08T00:46:54;0.80;99.90
8475;DHT22;4274;52.012;8.448;2023-03-08T00:49:20;0.80;99.90
8475;DHT22;4274;52.012;8.448;2023-03-08T00:51:47;0.80;99.90
8475;DHT22;4274;52.012;8.448;2023-03-08T00:54:13;0.80;99.90
8475;DHT22;4274;52.012;8.448;2023-03-08T00:56:38;0.80;99.90
8475;DHT22;4274;52.012;8.448;2023-03-08T00:59:04;0.80;99.90
8475;DHT22;4274;52.012;8.448;2023-03-08T01:01:30;0.80;99.90
8475;DHT22;4274;52.012;8.448;2023-03-08T01:03:55;0.70;99.90
8475;DHT22;4274;52.012;8.448;2023-03-08T01:06:21;0.70;99.90
8475;DHT22;4274;52.012;8.448;2023-03-08T01:08:47;0.70;99.90
8475;DHT22;4274;52.012;8.448;2023-03-08T01:11:15;0.70;99.90
8475;DHT22;4274;52.012;8.448;2023-03-08T01:13:41;0.70;99.90
8475;DHT22;4274;52.012;8.448;2023-03-08T01:16:14;0.70;99.90
8475;DHT22;4274;52.012;8.448;2023-03-08T01:18:40;0.70;99.90
8475;DHT22;4274;52.012;8.448;2023-03-08T01:21:06;0.60;99.90
8475;DHT22;4274;52.012;8.448;2023-03-08T01:23:31;0.60;99.90
8475;DHT22;4274;52.012;8.448;2023-03-08T01:26:01;0.60;99.90
8475;DHT22;4274;52.012;8.448;2023-03-08T01:28:28;0.60;99.90
8475;DHT22;4274;52.012;8.448;2023-03-08T01:30:53;0.60;99.90
8475;DHT22;4274;52.012;8.448;2023-03-08T01:33:19;0.60;99.90
8475;DHT22;4274;52.012;8.448;2023-03-08T01:35:46;0.60;99.90
8475;DHT22;4274;52.012;8.448;2023-03-08T01:38:11;0.60;99.90
8475;DHT22;4274;52.012;8.448;2023-03-08T01:40:37;0.60;99.90
8475;DHT22;4274;52.012;8.448;2023-03-08T01:43:23;0.60;99.90
8475;DHT22;4274;52.012;8.448;2023-03-08T01:48:43;0.60;99.90
8475;DHT22;4274;52.012;8.448;2023-03-08T01:51:12;0.60;99.90
8475;DHT22;4274;52.012;8.448;2023-03-08T01:53:40;0.60;99.90
8475;DHT22;4274;52.012;8.448;2023-03-08T01:56:10;0.60;99.90
8475;DHT22;4274;52.012;8.448;2023-03-08T01:58:38;0.60;99.90
8475;DHT22;4274;52.012;8.448;2023-03-08T02:01:04;0.60;99.90
8475;DHT22;4274;52.012;8.448;2023-03-08T02:03:30;0.60;99.90
8475;DHT22;4274;52.012;8.448;2023-03-08T02:05:56;0.60;99.90
8475;DHT22;4274;52.012;8.448;2023-03-08T02:08:22;0.60;99.90
8475;DHT22;4274;52.012;8.448;2023-03-08T02:10:48;0.60;99.90
8475;DHT22;4274;52.012;8.448;2023-03-08T02:13:15;0.60;99.90
8475;DHT22;4274;52.012;8.448;2023-03-08T02:15:41;0.60;99.90
8475;DHT22;4274;52.012;8.448;2023-03-08T02:18:06;0.60;99.90
8475;DHT22;4274;52.012;8.448;2023-03-08T02:20:36;0.60;99.90
8475;DHT22;4274;52.012;8.448;2023-03-08T02:23:15;0.60;99.90
8475;DHT22;4274;52.012;8.448;2023-03-08T02:25:54;0.60;99.90
8475;DHT22;4274;52.012;8.448;2023-03-08T02:28:21;0.60;99.90
8475;DHT22;4274;52.012;8.448;2023-03-08T02:30:48;0.60;99.90
8475;DHT22;4274;52.012;8.448;2023-03-08T02:33:14;0.60;99.90
8475;DHT22;4274;52.012;8.448;2023-03-08T02:35:40;0.50;99.90
8475;DHT22;4274;52.012;8.448;2023-03-08T02:38:09;0.50;99.90
8475;DHT22;4274;52.012;8.448;2023-03-08T02:40:36;0.50;99.90
8475;DHT22;4274;52.012;8.448;2023-03-08T02:43:02;0.50;99.90
8475;DHT22;4274;52.012;8.448;2023-03-08T02:45:28;0.50;99.90
8475;DHT22;4274;52.012;8.448;2023-03-08T02:47:53;0.50;99.90
8475;DHT22;4274;52.012;8.448;2023-03-08T02:50:19;0.50;99.90
8475;DHT22;4274;52.012;8.448;2023-03-08T02:52:45;0.50;99.90
8475;DHT22;4274;52.012;8.448;2023-03-08T02:55:10;0.50;99.90
8475;DHT22;4274;52.012;8.448;2023-03-08T02:57:36;0.50;99.90
8475;DHT22;4274;52.012;8.448;2023-03-08T03:00:02;0.50;99.90
8475;DHT22;4274;52.012;8.448;2023-03-08T03:02:31;0.50;99.90
8475;DHT22;4274;52.012;8.448;2023-03-08T03:04:57;0.50;99.90
8475;DHT22;4274;52.012;8.448;2023-03-08T03:07:22;0.50;99.90
8475;DHT22;4274;52.012;8.448;2023-03-08T03:09:48;0.40;99.90
8475;DHT22;4274;52.012;8.448;2023-03-08T03:12:14;0.50;99.90
8475;DHT22;4274;52.012;8.448;2023-03-08T03:14:39;0.40;99.90
8475;DHT22;4274;52.012;8.448;2023-03-08T03:17:05;0.40;99.90
8475;DHT22;4274;52.012;8.448;2023-03-08T03:19:30;0.40;99.90
8475;DHT22;4274;52.012;8.448;2023-03-08T03:21:56;0.40;99.90
8475;DHT22;4274;52.012;8.448;2023-03-08T03:24:21;0.40;99.90
8475;DHT22;4274;52.012;8.448;2023-03-08T03:26:50;0.40;99.90
8475;DHT22;4274;52.012;8.448;2023-03-08T03:29:16;0.40;99.90
8475;DHT22;4274;52.012;8.448;2023-03-08T03:31:41;0.40;99.90
8475;DHT22;4274;52.012;8.448;2023-03-08T03:34:07;0.40;99.90
8475;DHT22;4274;52.012;8.448;2023-03-08T03:36:33;0.40;99.90
8475;DHT22;4274;52.012;8.448;2023-03-08T03:38:59;0.40;99.90
8475;DHT22;4274;52.012;8.448;2023-03-08T03:41:24;0.30;99.90
8475;DHT22;4274;52.012;8.448;2023-03-08T03:43:50;0.30;99.90
8475;DHT22;4274;52.012;8.448;2023-03-08T03:46:18;0.30;99.90
8475;DHT22;4274;52.012;8.448;2023-03-08T03:48:44;0.30;99.90
8475;DHT22;4274;52.012;8.448;2023-03-08T03:51:12;0.30;99.90
8475;DHT22;4274;52.012;8.448;2023-03-08T03:53:39;0.30;99.90
8475;DHT22;4274;52.012;8.448;2023-03-08T03:58:32;0.30;99.90
8475;DHT22;4274;52.012;8.448;2023-03-08T04:00:57;0.30;99.90
8475;DHT22;4274;52.012;8.448;2023-03-08T04:03:23;0.30;99.90
8475;DHT22;4274;52.012;8.448;2023-03-08T04:05:49;0.30;99.90
8475;DHT22;4274;52.012;8.448;2023-03-08T04:08:15;0.30;99.90
8475;DHT22;4274;52.012;8.448;2023-03-08T04:10:41;0.30;99.90
8475;DHT22;4274;52.012;8.448;2023-03-08T04:13:11;0.30;99.90
8475;DHT22;4274;52.012;8.448;2023-03-08T04:15:36;0.20;99.90
8475;DHT22;4274;52.012;8.448;2023-03-08T04:18:02;0.20;99.90
8475;DHT22;4274;52.012;8.448;2023-03-08T04:20:27;0.20;99.90
8475;DHT22;4274;52.012;8.448;2023-03-08T04:22:53;0.20;99.90
8475;DHT22;4274;52.012;8.448;2023-03-08T04:25:18;0.20;99.90
8475;DHT22;4274;52.012;8.448;2023-03-08T04:27:44;0.30;99.90
8475;DHT22;4274;52.012;8.448;2023-03-08T04:30:11;0.30;99.90
8475;DHT22;4274;52.012;8.448;2023-03-08T04:32:36;0.20;99.90
8475;DHT22;4274;52.012;8.448;2023-03-08T04:35:02;0.30;99.90
8475;DHT22;4274;52.012;8.448;2023-03-08T04:37:28;0.30;99.90
8475;DHT22;4274;52.012;8.448;2023-03-08T04:39:54;0.20;99.90
8475;DHT22;4274;52.012;8.448;2023-03-08T04:42:20;0.20;99.90
8475;DHT22;4274;52.012;8.448;2023-03-08T04:44:46;0.20;99.90
8475;DHT22;4274;52.012;8.448;2023-03-08T04:47:11;0.20;99.90
8475;DHT22;4274;52.012;8.448;2023-03-08T04:49:37;0.20;99.90
8475;DHT22;4274;52.012;8.448;2023-03-08T04:52:03;0.10;99.90
8475;DHT22;4274;52.012;8.448;2023-03-08T04:54:28;0.20;99.90
8475;DHT22;4274;52.012;8.448;2023-03-08T04:56:54;0.20;99.90
8475;DHT22;4274;52.012;8.448;2023-03-08T04:59:19;0.20;99.90
8475;DHT22;4274;52.012;8.448;2023-03-08T05:01:45;0.20;99.90
8475;DHT22;4274;52.012;8.448;2023-03-08T05:04:10;0.10;99.90
8475;DHT22;4274;52.012;8.448;2023-03-08T05:06:36;0.10;99.90
8475;DHT22;4274;52.012;8.448;2023-03-08T05:09:02;0.10;99.90
8475;DHT22;4274;52.012;8.448;2023-03-08T05:11:28;0.10;99.90
8475;DHT22;4274;52.012;8.448;2023-03-08T05:13:55;0.10;99.90
8475;DHT22;4274;52.012;8.448;2023-03-08T05:16:22;0.10;99.90
8475;DHT22;4274;52.012;8.448;2023-03-08T05:18:48;0.20;99.90
8475;DHT22;4274;52.012;8.448;2023-03-08T05:21:16;0.10;99.90
8475;DHT22;4274;52.012;8.448;2023-03-08T05:23:42;0.10;99.90
8475;DHT22;4274;52.012;8.448;2023-03-08T05:26:09;0.20;99.90
8475;DHT22;4274;52.012;8.448;2023-03-08T05:28:35;0.20;99.90
8475;DHT22;4274;52.012;8.448;2023-03-08T05:31:06;0.20;99.90
8475;DHT22;4274;52.012;8.448;2023-03-08T05:33:33;0.20;99.90
8475;DHT22;4274;52.012;8.448;2023-03-08T05:35:59;0.20;99.90
8475;DHT22;4274;52.012;8.448;2023-03-08T05:38:26;0.20;99.90
8475;DHT22;4274;52.012;8.448;2023-03-08T05:40:52;0.20;99.90
8475;DHT22;4274;52.012;8.448;2023-03-08T05:43:18;0.20;99.90
8475;DHT22;4274;52.012;8.448;2023-03-08T05:45:53;0.20;99.90
8475;DHT22;4274;52.012;8.448;2023-03-08T05:48:19;0.20;99.90
8475;DHT22;4274;52.012;8.448;2023-03-08T05:50:45;0.20;99.90
8475;DHT22;4274;52.012;8.448;2023-03-08T05:53:10;0.20;99.90
8475;DHT22;4274;52.012;8.448;2023-03-08T05:55:36;0.20;99.90
8475;DHT22;4274;52.012;8.448;2023-03-08T05:58:01;0.20;99.90
8475;DHT22;4274;52.012;8.448;2023-03-08T06:00:27;0.20;99.90
8475;DHT22;4274;52.012;8.448;2023-03-08T06:02:52;0.10;99.90
8475;DHT22;4274;52.012;8.448;2023-03-08T06:05:18;0.20;99.90
8475;DHT22;4274;52.012;8.448;2023-03-08T06:07:43;0.20;99.90
8475;DHT22;4274;52.012;8.448;2023-03-08T06:10:09;0.20;99.90
8475;DHT22;4274;52.012;8.448;2023-03-08T06:12:35;0.20;99.90
8475;DHT22;4274;52.012;8.448;2023-03-08T06:15:00;0.30;99.90
8475;DHT22;4274;52.012;8.448;2023-03-08T06:17:26;0.20;99.90
8475;DHT22;4274;52.012;8.448;2023-03-08T06:19:51;0.20;99.90
8475;DHT22;4274;52.012;8.448;2023-03-08T06:22:17;0.20;99.90
8475;DHT22;4274;52.012;8.448;2023-03-08T06:24:43;0.20;99.90
8475;DHT22;4274;52.012;8.448;2023-03-08T06:27:08;0.20;99.90
8475;DHT22;4274;52.012;8.448;2023-03-08T06:29:34;0.20;99.90
8475;DHT22;4274;52.012;8.448;2023-03-08T06:31:59;0.20;99.90
8475;DHT22;4274;52.012;8.448;2023-03-08T06:34:25;0.20;99.90
8475;DHT22;4274;52.012;8.448;2023-03-08T06:36:50;0.20;99.90
8475;DHT22;4274;52.012;8.448;2023-03-08T06:39:16;0.20;99.90
8475;DHT22;4274;52.012;8.448;2023-03-08T06:41:42;0.30;99.90
8475;DHT22;4274;52.012;8.448;2023-03-08T06:44:08;0.30;99.90
8475;DHT22;4274;52.012;8.448;2023-03-08T06:46:33;0.30;99.90
8475;DHT22;4274;52.012;8.448;2023-03-08T06:48:59;0.40;99.90
8475;DHT22;4274;52.012;8.448;2023-03-08T06:51:25;0.40;99.90
8475;DHT22;4274;52.012;8.448;2023-03-08T06:53:51;0.40;99.90
8475;DHT22;4274;52.012;8.448;2023-03-08T06:56:17;0.40;99.90
8475;DHT22;4274;52.012;8.448;2023-03-08T06:58:43;0.40;99.90
8475;DHT22;4274;52.012;8.448;2023-03-08T07:01:09;0.50;99.90
8475;DHT22;4274;52.012;8.448;2023-03-08T07:03:35;0.50;99.90
8475;DHT22;4274;52.012;8.448;2023-03-08T07:06:07;0.50;99.90
8475;DHT22;4274;52.012;8.448;2023-03-08T07:08:33;0.50;99.90
8475;DHT22;4274;52.012;8.448;2023-03-08T07:10:59;0.50;99.90
8475;DHT22;4274;52.012;8.448;2023-03-08T07:13:25;0.50;99.90
8475;DHT22;4274;52.012;8.448;2023-03-08T07:15:51;0.50;99.90
8475;DHT22;4274;52.012;8.448;2023-03-08T07:18:17;0.60;99.90
8475;DHT22;4274;52.012;8.448;2023-03-08T07:20:42;0.60;99.90
8475;DHT22;4274;52.012;8.448;2023-03-08T07:23:08;0.60;99.90
8475;DHT22;4274;52.012;8.448;2023-03-08T07:25:34;0.60;99.90
8475;DHT22;4274;52.012;8.448;2023-03-08T07:28:02;0.60;99.90
8475;DHT22;4274;52.012;8.448;2023-03-08T07:30:27;0.70;99.90
8475;DHT22;4274;52.012;8.448;2023-03-08T07:32:53;0.80;99.90
8475;DHT22;4274;52.012;8.448;2023-03-08T07:35:18;0.90;99.90
8475;DHT22;4274;52.012;8.448;2023-03-08T07:37:45;0.90;99.90
8475;DHT22;4274;52.012;8.448;2023-03-08T07:40:13;0.90;99.90
8475;DHT22;4274;52.012;8.448;2023-03-08T07:42:39;0.90;99.90
8475;DHT22;4274;52.012;8.448;2023-03-08T07:45:05;0.90;99.90
8475;DHT22;4274;52.012;8.448;2023-03-08T07:47:30;0.90;99.90
8475;DHT22;4274;52.012;8.448;2023-03-08T07:49:56;0.90;99.90
8475;DHT22;4274;52.012;8.448;2023-03-08T07:52:29;1.00;99.90
8475;DHT22;4274;52.012;8.448;2023-03-08T07:54:55;1.00;99.90
8475;DHT22;4274;52.012;8.448;2023-03-08T07:57:21;1.00;99.90
8475;DHT22;4274;52.012;8.448;2023-03-08T07:59:49;1.00;99.90
8475;DHT22;4274;52.012;8.448;2023-03-08T08:02:14;1.00;99.90
8475;DHT22;4274;52.012;8.448;2023-03-08T08:04:40;1.10;99.90
8475;DHT22;4274;52.012;8.448;2023-03-08T08:07:10;1.10;99.90
8475;DHT22;4274;52.012;8.448;2023-03-08T08:09:36;1.10;99.90
8475;DHT22;4274;52.012;8.448;2023-03-08T08:12:02;1.10;99.90
8475;DHT22;4274;52.012;8.448;2023-03-08T08:14:28;1.10;99.90
8475;DHT22;4274;52.012;8.448;2023-03-08T08:16:53;1.10;99.90
8475;DHT22;4274;52.012;8.448;2023-03-08T08:19:19;1.20;99.90
8475;DHT22;4274;52.012;8.448;2023-03-08T08:21:44;1.20;99.90
8475;DHT22;4274;52.012;8.448;2023-03-08T08:24:10;1.20;99.90
8475;DHT22;4274;52.012;8.448;2023-03-08T08:26:36;1.30;99.90
8475;DHT22;4274;52.012;8.448;2023-03-08T08:29:02;1.40;99.90
8475;DHT22;4274;52.012;8.448;2023-03-08T08:31:28;1.50;99.90
8475;DHT22;4274;52.012;8.448;2023-03-08T08:33:57;1.50;99.90
8475;DHT22;4274;52.012;8.448;2023-03-08T08:36:23;1.50;99.90
8475;DHT22;4274;52.012;8.448;2023-03-08T08:38:49;1.50;99.90
8475;DHT22;4274;52.012;8.448;2023-03-08T08:41:17;1.50;99.90
8475;DHT22;4274;52.012;8.448;2023-03-08T08:43:44;1.50;99.90
8475;DHT22;4274;52.012;8.448;2023-03-08T08:46:11;1.50;99.90
8475;DHT22;4274;52.012;8.448;2023-03-08T08:48:37;1.60;99.90
8475;DHT22;4274;52.012;8.448;2023-03-08T08:51:07;1.70;99.90
8475;DHT22;4274;52.012;8.448;2023-03-08T08:53:34;1.70;99.90
8475;DHT22;4274;52.012;8.448;2023-03-08T08:56:18;1.80;99.90
8475;DHT22;4274;52.012;8.448;2023-03-08T08:58:44;1.80;99.90
8475;DHT22;4274;52.012;8.448;2023-03-08T09:01:18;1.80;99.90
8475;DHT22;4274;52.012;8.448;2023-03-08T09:03:45;1.70;99.90
8475;DHT22;4274;52.012;8.448;2023-03-08T09:06:11;1.70;99.90
8475;DHT22;4274;52.012;8.448;2023-03-08T09:08:37;1.80;99.90
8475;DHT22;4274;52.012;8.448;2023-03-08T09:11:04;1.80;99.90
8475;DHT22;4274;52.012;8.448;2023-03-08T09:13:31;1.80;99.90
8475;DHT22;4274;52.012;8.448;2023-03-08T09:15:56;1.70;99.90
8475;DHT22;4274;52.012;8.448;2023-03-08T09:18:22;1.70;99.90
8475;DHT22;4274;52.012;8.448;2023-03-08T09:20:48;1.70;99.90
8475;DHT22;4274;52.012;8.448;2023-03-08T09:23:13;1.60;99.90
8475;DHT22;4274;52.012;8.448;2023-03-08T09:25:39;1.60;99.90
8475;DHT22;4274;52.012;8.448;2023-03-08T09:28:04;1.60;99.90
8475;DHT22;4274;52.012;8.448;2023-03-08T09:30:30;1.60;99.90
8475;DHT22;4274;52.012;8.448;2023-03-08T09:32:57;1.60;99.90
8475;DHT22;4274;52.012;8.448;2023-03-08T09:35:23;1.60;99.90
8475;DHT22;4274;52.012;8.448;2023-03-08T09:37:49;1.50;99.90
8475;DHT22;4274;52.012;8.448;2023-03-08T09:40:20;1.60;99.90
8475;DHT22;4274;52.012;8.448;2023-03-08T09:42:48;1.60;99.90
8475;DHT22;4274;52.012;8.448;2023-03-08T09:45:25;1.50;99.90
8475;DHT22;4274;52.012;8.448;2023-03-08T09:50:52;1.50;99.90
8475;DHT22;4274;52.012;8.448;2023-03-08T09:53:37;1.50;99.90
8475;DHT22;4274;52.012;8.448;2023-03-08T09:58:58;1.40;99.90
8475;DHT22;4274;52.012;8.448;2023-03-08T10:04:29;1.50;99.90
8475;DHT22;4274;52.012;8.448;2023-03-08T10:13:18;1.60;99.90
8475;DHT22;4274;52.012;8.448;2023-03-08T10:15:50;1.70;99.90
8475;DHT22;4274;52.012;8.448;2023-03-08T10:20:59;1.60;99.90
8475;DHT22;4274;52.012;8.448;2023-03-08T10:23:28;1.60;99.90
8475;DHT22;4274;52.012;8.448;2023-03-08T10:25:55;1.70;99.90
8475;DHT22;4274;52.012;8.448;2023-03-08T10:28:23;1.70;99.90
8475;DHT22;4274;52.012;8.448;2023-03-08T10:30:55;1.60;99.90
8475;DHT22;4274;52.012;8.448;2023-03-08T10:33:25;1.60;99.90
8475;DHT22;4274;52.012;8.448;2023-03-08T10:35:55;1.60;99.90
8475;DHT22;4274;52.012;8.448;2023-03-08T10:38:22;1.60;99.90
8475;DHT22;4274;52.012;8.448;2023-03-08T10:40:48;1.60;99.90
8475;DHT22;4274;52.012;8.448;2023-03-08T10:43:33;1.70;99.90
8475;DHT22;4274;52.012;8.448;2023-03-08T10:46:14;1.80;99.90
8475;DHT22;4274;52.012;8.448;2023-03-08T10:48:40;1.90;99.90
8475;DHT22;4274;52.012;8.448;2023-03-08T10:51:24;2.00;99.90
8475;DHT22;4274;52.012;8.448;2023-03-08T10:54:02;2.00;99.90
8475;DHT22;4274;52.012;8.448;2023-03-08T10:56:50;2.00;99.90
8475;DHT22;4274;52.012;8.448;2023-03-08T10:59:19;2.00;99.90
8475;DHT22;4274;52.012;8.448;2023-03-08T11:01:52;1.90;99.90
8475;DHT22;4274;52.012;8.448;2023-03-08T11:04:20;1.80;99.90
8475;DHT22;4274;52.012;8.448;2023-03-08T11:06:46;1.80;99.90
8475;DHT22;4274;52.012;8.448;2023-03-08T11:09:24;1.80;99.90
8475;DHT22;4274;52.012;8.448;2023-03-08T11:11:52;1.80;99.90
8475;DHT22;4274;52.012;8.448;2023-03-08T11:14:18;1.80;99.90
8475;DHT22;4274;52.012;8.448;2023-03-08T11:16:45;1.90;99.90
8475;DHT22;4274;52.012;8.448;2023-03-08T11:19:24;2.10;99.90
8475;DHT22;4274;52.012;8.448;2023-03-08T11:33:35;2.70;99.90
8475;DHT22;4274;52.012;8.448;2023-03-08T11:36:15;2.60;99.90
8475;DHT22;4274;52.012;8.448;2023-03-08T11:38:50;2.30;99.90
8475;DHT22;4274;52.012;8.448;2023-03-08T11:46:50;2.30;99.90
8475;DHT22;4274;52.012;8.448;2023-03-08T11:49:49;2.40;99.90
8475;DHT22;4274;52.012;8.448;2023-03-08T11:57:44;2.50;99.90
8475;DHT22;4274;52.012;8.448;2023-03-08T12:00:23;2.30;99.90
8475;DHT22;4274;52.012;8.448;2023-03-08T12:02:53;2.20;99.90
8475;DHT22;4274;52.012;8.448;2023-03-08T12:05:27;2.10;99.90
8475;DHT22;4274;52.012;8.448;2023-03-08T12:08:12;2.10;99.90
8475;DHT22;4274;52.012;8.448;2023-03-08T12:10:56;2.00;99.90
8475;DHT22;4274;52.012;8.448;2023-03-08T12:13:32;1.90;99.90
8475;DHT22;4274;52.012;8.448;2023-03-08T12:16:05;1.80;99.90
8475;DHT22;4274;52.012;8.448;2023-03-08T12:23:49;1.80;99.90
8475;DHT22;4274;52.012;8.448;2023-03-08T12:28:55;1.90;99.90
8475;DHT22;4274;52.012;8.448;2023-03-08T12:31:26;1.80;99.90
8475;DHT22;4274;52.012;8.448;2023-03-08T12:33:55;1.80;99.90
8475;DHT22;4274;52.012;8.448;2023-03-08T12:36:21;1.90;99.90
8475;DHT22;4274;52.012;8.448;2023-03-08T12:39:06;1.90;99.90
8475;DHT22;4274;52.012;8.448;2023-03-08T12:41:31;1.90;99.90
8475;DHT22;4274;52.012;8.448;2023-03-08T12:44:03;1.90;99.90
8475;DHT22;4274;52.012;8.448;2023-03-08T12:46:49;1.90;99.90
8475;DHT22;4274;52.012;8.448;2023-03-08T12:49:36;1.80;99.90
8475;DHT22;4274;52.012;8.448;2023-03-08T12:57:47;2.00;99.90
8475;DHT22;4274;52.012;8.448;2023-03-08T13:02:45;1.90;99.90
8475;DHT22;4274;52.012;8.448;2023-03-08T13:08:03;1.80;99.90
8475;DHT22;4274;52.012;8.448;2023-03-08T13:16:04;1.70;99.90
8475;DHT22;4274;52.012;8.448;2023-03-08T13:18:30;1.70;99.90
8475;DHT22;4274;52.012;8.448;2023-03-08T13:21:21;1.70;99.90
8475;DHT22;4274;52.012;8.448;2023-03-08T13:23:55;1.70;99.90
8475;DHT22;4274;52.012;8.448;2023-03-08T13:29:16;1.60;99.90
8475;DHT22;4274;52.012;8.448;2023-03-08T13:31:43;1.50;99.90
8475;DHT22;4274;52.012;8.448;2023-03-08T13:34:30;1.50;99.90
8475;DHT22;4274;52.012;8.448;2023-03-08T13:36:56;1.50;99.90
8475;DHT22;4274;52.012;8.448;2023-03-08T13:39:27;1.50;99.90
8475;DHT22;4274;52.012;8.448;2023-03-08T13:42:05;1.40;99.90
8475;DHT22;4274;52.012;8.448;2023-03-08T13:44:31;1.40;99.90
8475;DHT22;4274;52.012;8.448;2023-03-08T13:47:02;1.50;99.90
8475;DHT22;4274;52.012;8.448;2023-03-08T13:49:35;1.40;99.90
8475;DHT22;4274;52.012;8.448;2023-03-08T13:52:03;1.40;99.90
8475;DHT22;4274;52.012;8.448;2023-03-08T13:54:42;1.40;99.90
8475;DHT22;4274;52.012;8.448;2023-03-08T13:57:30;1.40;99.90
8475;DHT22;4274;52.012;8.448;2023-03-08T14:02:44;1.40;99.90
8475;DHT22;4274;52.012;8.448;2023-03-08T14:05:22;1.50;99.90
8475;DHT22;4274;52.012;8.448;2023-03-08T14:08:04;1.50;99.90
8475;DHT22;4274;52.012;8.448;2023-03-08T14:10:43;1.40;99.90
8475;DHT22;4274;52.012;8.448;2023-03-08T14:15:52;1.40;99.90
8475;DHT22;4274;52.012;8.448;2023-03-08T14:18:21;1.30;99.90
8475;DHT22;4274;52.012;8.448;2023-03-08T14:21:04;1.40;99.90
8475;DHT22;4274;52.012;8.448;2023-03-08T14:23:35;1.40;99.90
8475;DHT22;4274;52.012;8.448;2023-03-08T14:26:01;1.40;99.90
8475;DHT22;4274;52.012;8.448;2023-03-08T14:28:37;1.40;99.90
8475;DHT22;4274;52.012;8.448;2023-03-08T14:31:03;1.50;99.90
8475;DHT22;4274;52.012;8.448;2023-03-08T14:33:57;1.40;99.90
8475;DHT22;4274;52.012;8.448;2023-03-08T14:36:24;1.40;99.90
8475;DHT22;4274;52.012;8.448;2023-03-08T14:38:50;1.40;99.90
8475;DHT22;4274;52.012;8.448;2023-03-08T14:41:15;1.40;99.90
8475;DHT22;4274;52.012;8.448;2023-03-08T14:43:48;1.40;99.90
8475;DHT22;4274;52.012;8.448;2023-03-08T14:46:17;1.40;99.90
8475;DHT22;4274;52.012;8.448;2023-03-08T14:48:43;1.40;99.90
8475;DHT22;4274;52.012;8.448;2023-03-08T14:53:59;1.40;99.90
8475;DHT22;4274;52.012;8.448;2023-03-08T14:56:27;1.40;99.90
8475;DHT22;4274;52.012;8.448;2023-03-08T14:58:53;1.40;99.90
8475;DHT22;4274;52.012;8.448;2023-03-08T15:01:23;1.40;99.90
8475;DHT22;4274;52.012;8.448;2023-03-08T15:03:49;1.40;99.90
8475;DHT22;4274;52.012;8.448;2023-03-08T15:06:20;1.50;99.90
8475;DHT22;4274;52.012;8.448;2023-03-08T15:08:46;1.50;99.90
8475;DHT22;4274;52.012;8.448;2023-03-08T15:11:12;1.50;99.90
8475;DHT22;4274;52.012;8.448;2023-03-08T15:13:38;1.50;99.90
8475;DHT22;4274;52.012;8.448;2023-03-08T15:16:06;1.40;99.90
8475;DHT22;4274;52.012;8.448;2023-03-08T15:18:31;1.40;99.90
8475;DHT22;4274;52.012;8.448;2023-03-08T15:20:57;1.40;99.90
8475;DHT22;4274;52.012;8.448;2023-03-08T15:23:26;1.40;99.90
8475;DHT22;4274;52.012;8.448;2023-03-08T15:25:52;1.40;99.90
8475;DHT22;4274;52.012;8.448;2023-03-08T15:28:19;1.50;99.90
8475;DHT22;4274;52.012;8.448;2023-03-08T15:30:45;1.40;99.90
8475;DHT22;4274;52.012;8.448;2023-03-08T15:33:11;1.40;99.90
8475;DHT22;4274;52.012;8.448;2023-03-08T15:35:38;1.40;99.90
8475;DHT22;4274;52.012;8.448;2023-03-08T15:38:03;1.40;99.90
8475;DHT22;4274;52.012;8.448;2023-03-08T15:40:30;1.40;99.90
8475;DHT22;4274;52.012;8.448;2023-03-08T15:42:56;1.40;99.90
8475;DHT22;4274;52.012;8.448;2023-03-08T15:45:23;1.40;99.90
8475;DHT22;4274;52.012;8.448;2023-03-08T15:48:00;1.40;99.90
8475;DHT22;4274;52.012;8.448;2023-03-08T15:50:27;1.40;99.90
8475;DHT22;4274;52.012;8.448;2023-03-08T15:52:53;1.40;99.90
8475;DHT22;4274;52.012;8.448;2023-03-08T15:55:21;1.50;99.90
8475;DHT22;4274;52.012;8.448;2023-03-08T15:57:47;1.50;99.90
8475;DHT22;4274;52.012;8.448;2023-03-08T16:00:14;1.50;99.90
8475;DHT22;4274;52.012;8.448;2023-03-08T16:02:41;1.40;99.90
8475;DHT22;4274;52.012;8.448;2023-03-08T16:05:08;1.30;99.90
8475;DHT22;4274;52.012;8.448;2023-03-08T16:07:34;1.20;99.90
8475;DHT22;4274;52.012;8.448;2023-03-08T16:10:01;1.20;99.90
8475;DHT22;4274;52.012;8.448;2023-03-08T16:12:27;1.20;99.90
8475;DHT22;4274;52.012;8.448;2023-03-08T16:14:52;1.10;99.90
8475;DHT22;4274;52.012;8.448;2023-03-08T16:17:25;1.10;99.90
8475;DHT22;4274;52.012;8.448;2023-03-08T16:19:53;1.00;99.90
8475;DHT22;4274;52.012;8.448;2023-03-08T16:22:19;1.00;99.90
8475;DHT22;4274;52.012;8.448;2023-03-08T16:24:44;1.00;99.90
8475;DHT22;4274;52.012;8.448;2023-03-08T16:27:10;1.00;99.90
8475;DHT22;4274;52.012;8.448;2023-03-08T16:29:36;1.00;99.90
8475;DHT22;4274;52.012;8.448;2023-03-08T16:32:02;0.90;99.90
8475;DHT22;4274;52.012;8.448;2023-03-08T16:34:28;0.90;99.90
8475;DHT22;4274;52.012;8.448;2023-03-08T16:36:55;0.90;99.90
8475;DHT22;4274;52.012;8.448;2023-03-08T16:39:21;0.90;99.90
8475;DHT22;4274;52.012;8.448;2023-03-08T16:41:47;0.90;99.90
8475;DHT22;4274;52.012;8.448;2023-03-08T16:44:23;0.90;99.90
8475;DHT22;4274;52.012;8.448;2023-03-08T16:46:48;0.90;99.90
8475;DHT22;4274;52.012;8.448;2023-03-08T16:49:15;0.90;99.90
8475;DHT22;4274;52.012;8.448;2023-03-08T16:51:41;0.80;99.90
8475;DHT22;4274;52.012;8.448;2023-03-08T16:54:11;0.80;99.90
8475;DHT22;4274;52.012;8.448;2023-03-08T16:56:38;0.80;99.90
8475;DHT22;4274;52.012;8.448;2023-03-08T16:59:05;0.80;99.90
8475;DHT22;4274;52.012;8.448;2023-03-08T17:01:31;0.70;99.90
8475;DHT22;4274;52.012;8.448;2023-03-08T17:03:57;0.70;99.90
8475;DHT22;4274;52.012;8.448;2023-03-08T17:06:25;0.70;99.90
8475;DHT22;4274;52.012;8.448;2023-03-08T17:08:51;0.70;99.90
8475;DHT22;4274;52.012;8.448;2023-03-08T17:11:22;0.70;99.90
8475;DHT22;4274;52.012;8.448;2023-03-08T17:13:54;0.70;99.90
8475;DHT22;4274;52.012;8.448;2023-03-08T17:16:22;0.70;99.90
8475;DHT22;4274;52.012;8.448;2023-03-08T17:18:49;0.60;99.90
8475;DHT22;4274;52.012;8.448;2023-03-08T17:21:15;0.60;99.90
8475;DHT22;4274;52.012;8.448;2023-03-08T17:23:41;0.50;99.90
8475;DHT22;4274;52.012;8.448;2023-03-08T17:26:09;0.50;99.90
8475;DHT22;4274;52.012;8.448;2023-03-08T17:28:36;0.50;99.90
8475;DHT22;4274;52.012;8.448;2023-03-08T17:31:07;0.50;99.90
8475;DHT22;4274;52.012;8.448;2023-03-08T17:33:33;0.50;99.90
8475;DHT22;4274;52.012;8.448;2023-03-08T17:35:59;0.50;99.90
8475;DHT22;4274;52.012;8.448;2023-03-08T17:38:26;0.40;99.90
8475;DHT22;4274;52.012;8.448;2023-03-08T17:40:52;0.40;99.90
8475;DHT22;4274;52.012;8.448;2023-03-08T17:43:18;0.40;99.90